createdAt,value
2019-04-05T00:05:20.400Z,50.37
2019-04-05T00:15:26.014Z,42.10
2019-04-05T00:25:31.626Z,35.57
2019-04-05T00:35:37.240Z,35.97
2019-04-05T00:45:42.941Z,39.93
2019-04-05T00:55:48.467Z,33.27
2019-04-05T01:05:53.962Z,29.77
2019-04-05T01:15:59.500Z,27.93
2019-04-05T01:26:05.515Z,27.23
2019-04-05T01:36:11.132Z,36.77
2019-04-05T01:46:16.728Z,34.27
2019-04-05T01:56:22.245Z,30.10
2019-04-05T02:06:28.234Z,40.70
2019-04-05T02:16:34.044Z,39.30
2019-04-05T02:26:39.879Z,33.90
2019-04-05T02:36:45.564Z,38.27
2019-04-05T02:46:53.680Z,44.07
2019-04-05T02:57:00.587Z,42.27
2019-04-05T03:07:07.036Z,31.67
2019-04-05T03:17:13.499Z,37.47
2019-04-05T03:27:22.066Z,44.27
2019-04-05T03:37:27.676Z,88.60
2019-04-05T03:47:33.586Z,51.63
2019-04-05T03:57:39.199Z,74.57
2019-04-05T04:07:44.924Z,44.53
2019-04-05T04:17:52.159Z,45.57
2019-04-05T04:27:58.941Z,44.87
2019-04-05T04:38:05.082Z,44.03
2019-04-05T04:48:11.003Z,49.60
2019-04-05T04:58:16.642Z,51.77
2019-04-05T05:08:22.439Z,54.60
2019-04-05T05:18:28.075Z,53.00
2019-04-05T05:28:33.817Z,56.83
2019-04-05T05:38:39.461Z,74.60
2019-04-05T05:48:45.675Z,46.57
2019-04-05T05:58:51.422Z,51.07
2019-04-05T06:08:58.085Z,46.97
2019-04-05T06:19:03.730Z,42.53
2019-04-05T06:29:09.187Z,50.77
2019-04-05T06:39:14.690Z,59.10
2019-04-05T06:49:20.188Z,58.57
2019-04-05T06:59:25.725Z,40.43
2019-04-05T07:09:33.980Z,39.80
2019-04-05T07:19:38.399Z,37.77
2019-04-05T07:29:43.869Z,39.57
2019-04-05T07:39:49.752Z,37.77
2019-04-05T07:49:55.534Z,35.27
2019-04-05T08:00:01.060Z,35.07
2019-04-05T08:10:09.874Z,27.07
2019-04-05T08:20:17.948Z,37.10
2019-04-05T08:30:22.836Z,23.17
2019-04-05T08:40:27.774Z,25.57
2019-04-05T08:50:32.715Z,21.47
2019-04-05T09:00:38.031Z,18.70
2019-04-05T09:10:43.106Z,22.83
2019-04-05T09:20:48.410Z,18.37
2019-04-05T09:30:53.972Z,16.43
2019-04-05T09:41:00.145Z,19.67
2019-04-05T09:51:07.263Z,21.10
2019-04-05T10:01:13.086Z,29.47
2019-04-05T10:11:18.674Z,18.63
2019-04-05T10:21:24.378Z,17.53
2019-04-05T10:31:29.644Z,18.90
2019-04-05T10:41:35.049Z,17.47
2019-04-05T10:51:40.559Z,18.47
2019-04-05T11:01:47.035Z,19.20
2019-04-05T11:11:52.543Z,16.80
2019-04-05T11:21:58.038Z,19.10
2019-04-05T11:32:03.806Z,16.77
2019-04-05T11:42:09.494Z,16.13
2019-04-05T11:52:15.003Z,19.57
2019-04-05T12:02:22.073Z,20.37
2019-04-05T12:12:27.661Z,17.53
2019-04-05T12:22:34.918Z,18.57
2019-04-05T12:32:42.496Z,16.40
2019-04-05T12:42:48.158Z,17.10
2019-04-05T12:52:54.710Z,19.13
2019-04-05T13:03:00.823Z,10.87
2019-04-05T13:13:06.395Z,15.47
2019-04-05T13:23:11.855Z,13.43
2019-04-05T13:33:17.356Z,17.47
2019-04-05T13:43:22.925Z,17.53
2019-04-05T13:53:28.429Z,16.13
2019-04-05T14:03:33.954Z,19.73
2019-04-05T14:13:42.683Z,14.07
2019-04-05T14:23:47.075Z,16.23
2019-04-05T14:33:54.761Z,19.83
2019-04-05T14:44:00.016Z,17.73
2019-04-05T14:54:05.658Z,16.07
2019-04-05T15:04:12.164Z,21.17
2019-04-05T15:14:17.827Z,19.83
2019-04-05T15:24:23.653Z,20.30
2019-04-05T15:34:29.332Z,16.63
2019-04-05T15:44:34.831Z,22.17
2019-04-05T15:54:43.037Z,17.20
2019-04-05T16:04:47.693Z,20.70
2019-04-05T16:14:53.262Z,84.67
2019-04-05T16:24:59.013Z,27.47
2019-04-05T16:35:06.561Z,31.43
2019-04-05T16:45:13.332Z,39.97
2019-04-05T16:55:19.248Z,51.97
2019-04-05T17:05:25.083Z,51.53
2019-04-05T17:15:30.957Z,47.07
2019-04-05T17:25:38.297Z,54.77
2019-04-05T17:35:44.148Z,55.30
2019-04-05T17:45:50.035Z,108.33
2019-04-05T17:55:59.007Z,509.63
2019-04-05T18:06:07.534Z,164.23
2019-04-05T18:16:13.427Z,130.40
2019-04-05T18:26:19.316Z,154.03
2019-04-05T18:36:25.453Z,178.07
2019-04-05T18:46:31.456Z,132.67
2019-04-05T18:56:37.388Z,142.27
2019-04-05T19:06:44.599Z,129.93
2019-04-05T19:16:50.671Z,122.60
2019-04-05T19:26:56.721Z,140.50
2019-04-05T19:57:32.343Z,113.70
2019-04-05T20:07:38.402Z,102.03
2019-04-05T20:17:44.359Z,105.93
2019-04-05T20:28:17.962Z,92.87
2019-04-05T20:38:28.954Z,109.80
2019-04-05T20:48:36.180Z,95.63
2019-04-05T20:58:41.749Z,100.53
2019-04-05T21:08:47.315Z,89.40
2019-04-05T21:18:53.095Z,98.70
2019-04-05T21:28:58.675Z,98.80
2019-04-05T21:39:05.652Z,104.60
2019-04-05T21:49:12.043Z,114.73
2019-04-05T21:59:16.969Z,115.60
2019-04-05T22:09:22.395Z,120.20
2019-04-05T22:19:30.234Z,113.43
2019-04-05T22:29:36.457Z,143.67
2019-04-05T22:39:41.805Z,144.87
2019-04-05T22:49:47.612Z,127.23
2019-04-05T22:59:53.389Z,130.77
2019-04-05T23:09:59.004Z,125.80
2019-04-05T23:20:05.755Z,99.50
2019-04-05T23:30:14.840Z,99.50
2019-04-05T23:40:20.344Z,111.67
2019-04-05T23:50:25.829Z,101.23
